createdAt,value
2018-02-04T00:02:22.213Z,62.22
2018-02-04T00:04:50.126Z,62.29
2018-02-04T00:07:17.745Z,62.45
2018-02-04T00:09:46.682Z,62.96
2018-02-04T00:12:14.193Z,62.73
2018-02-04T00:14:41.945Z,62.64
2018-02-04T00:17:09.452Z,62.96
2018-02-04T00:19:36.995Z,62.99
2018-02-04T00:22:04.541Z,63.05
2018-02-04T00:24:32.053Z,63.26
2018-02-04T00:27:00.410Z,63.04
2018-02-04T00:29:27.922Z,62.96
2018-02-04T00:31:55.450Z,62.74
2018-02-04T00:34:23.018Z,63.13
2018-02-04T00:36:50.669Z,63.44
2018-02-04T00:39:18.309Z,63.14
2018-02-04T00:41:45.824Z,63.11
2018-02-04T00:44:13.362Z,63.49
2018-02-04T00:46:40.905Z,63.53
2018-02-04T00:49:08.418Z,63.60
2018-02-04T00:51:36.073Z,63.79
2018-02-04T00:54:03.593Z,63.62
2018-02-04T00:56:31.103Z,64.16
2018-02-04T00:58:59.517Z,64.05
2018-02-04T01:01:27.037Z,64.23
2018-02-04T01:03:54.609Z,64.42
2018-02-04T01:06:22.125Z,64.76
2018-02-04T01:08:49.638Z,65.15
2018-02-04T01:11:17.181Z,65.73
2018-02-04T01:13:44.693Z,65.95
2018-02-04T01:16:16.285Z,65.70
2018-02-04T01:18:43.878Z,65.76
2018-02-04T01:21:11.836Z,65.45
2018-02-04T01:23:39.377Z,66.03
2018-02-04T01:26:06.890Z,65.88
2018-02-04T01:28:34.608Z,66.12
2018-02-04T01:31:02.151Z,66.38
2018-02-04T01:33:30.176Z,66.04
2018-02-04T01:35:57.719Z,65.94
2018-02-04T01:38:25.670Z,65.88
2018-02-04T01:40:53.225Z,66.19
2018-02-04T01:43:20.741Z,65.96
2018-02-04T01:45:48.328Z,66.09
2018-02-04T01:48:16.734Z,66.07
2018-02-04T01:53:11.102Z,66.56
2018-02-04T01:55:38.618Z,66.40
2018-02-04T01:58:06.128Z,66.57
2018-02-04T02:00:33.681Z,66.43
2018-02-04T02:03:01.207Z,66.66
2018-02-04T02:05:28.838Z,66.70
2018-02-04T02:07:56.363Z,66.61
2018-02-04T02:10:23.881Z,66.73
2018-02-04T02:12:51.428Z,66.73
2018-02-04T02:15:18.950Z,67.10
2018-02-04T02:17:46.593Z,67.56
2018-02-04T02:20:14.105Z,67.24
2018-02-04T02:22:41.624Z,67.45
2018-02-04T02:25:09.161Z,67.28
2018-02-04T02:27:36.677Z,67.56
2018-02-04T02:30:04.248Z,67.63
2018-02-04T02:32:31.769Z,68.63
2018-02-04T02:34:59.298Z,68.78
2018-02-04T02:37:26.878Z,68.22
2018-02-04T02:39:54.394Z,68.47
2018-02-04T02:42:22.189Z,68.57
2018-02-04T02:44:49.701Z,68.76
2018-02-04T02:47:17.233Z,69.00
2018-02-04T02:49:44.774Z,69.95
2018-02-04T02:52:12.329Z,69.67
2018-02-04T02:54:39.917Z,70.65
2018-02-04T02:57:07.450Z,71.69
2018-02-04T02:59:34.969Z,71.47
2018-02-04T03:02:02.511Z,71.79
2018-02-04T03:04:30.025Z,73.20
2018-02-04T03:06:57.754Z,72.46
2018-02-04T03:09:25.272Z,70.84
2018-02-04T03:11:52.794Z,70.81
2018-02-04T03:14:20.345Z,71.32
2018-02-04T03:16:47.854Z,70.96
2018-02-04T03:19:15.675Z,70.75
2018-02-04T03:21:43.193Z,70.85
2018-02-04T03:24:10.703Z,70.83
2018-02-04T03:26:38.250Z,71.05
2018-02-04T03:29:06.424Z,71.17
2018-02-04T03:31:33.979Z,71.07
2018-02-04T03:34:01.491Z,70.78
2018-02-04T03:36:29.014Z,70.91
2018-02-04T03:38:56.551Z,71.34
2018-02-04T03:41:24.061Z,70.97
2018-02-04T03:43:51.781Z,71.07
2018-02-04T03:46:19.297Z,70.45
2018-02-04T03:48:47.232Z,70.44
2018-02-04T03:51:14.780Z,70.72
2018-02-04T03:53:42.351Z,70.54
2018-02-04T03:56:09.985Z,70.46
2018-02-04T03:58:37.493Z,70.38
2018-02-04T04:01:05.019Z,70.46
2018-02-04T04:03:32.567Z,70.75
2018-02-04T04:06:00.161Z,71.06
2018-02-04T04:08:27.808Z,71.40
2018-02-04T04:10:55.316Z,70.90
2018-02-04T04:13:22.825Z,71.10
2018-02-04T04:15:50.357Z,71.37
2018-02-04T04:18:17.865Z,70.94
2018-02-04T04:20:45.521Z,70.94
2018-02-04T04:23:13.044Z,71.06
2018-02-04T04:25:40.574Z,71.03
2018-02-04T04:28:08.121Z,71.46
2018-02-04T04:30:36.221Z,71.43
2018-02-04T04:33:03.770Z,71.74
2018-02-04T04:35:31.297Z,71.67
2018-02-04T04:37:58.817Z,71.73
2018-02-04T04:40:26.371Z,71.20
2018-02-04T04:42:53.877Z,70.97
2018-02-04T04:45:21.611Z,70.46
2018-02-04T04:47:49.125Z,70.49
2018-02-04T04:50:16.649Z,70.63
2018-02-04T04:52:44.194Z,70.50
2018-02-04T04:55:11.710Z,70.38
2018-02-04T04:57:39.280Z,70.07
2018-02-04T05:00:06.801Z,70.51
2018-02-04T05:02:34.333Z,70.52
2018-02-04T05:05:01.881Z,70.60
2018-02-04T05:07:29.453Z,70.46
2018-02-04T05:09:57.088Z,70.34
2018-02-04T05:12:25.065Z,70.50
2018-02-04T05:14:52.582Z,70.20
2018-02-04T05:17:20.129Z,70.19
2018-02-04T05:19:47.676Z,70.41
2018-02-04T05:22:15.385Z,70.45
2018-02-04T05:24:42.962Z,70.33
2018-02-04T05:27:10.474Z,70.64
2018-02-04T05:29:38.027Z,70.23
2018-02-04T05:32:05.542Z,70.79
2018-02-04T05:34:33.288Z,70.96
2018-02-04T05:37:00.814Z,71.15
2018-02-04T05:39:28.325Z,70.75
2018-02-04T05:41:55.867Z,71.08
2018-02-04T05:44:23.381Z,71.32
2018-02-04T05:46:50.945Z,71.48
2018-02-04T05:49:18.477Z,71.04
2018-02-04T05:51:45.992Z,70.73
2018-02-04T05:54:13.533Z,70.70
2018-02-04T05:56:41.106Z,70.79
2018-02-04T05:59:08.902Z,71.02
2018-02-04T06:01:36.412Z,70.99
2018-02-04T06:04:03.932Z,71.08
2018-02-04T06:06:31.477Z,71.14
2018-02-04T06:08:58.989Z,70.89
2018-02-04T06:11:26.873Z,71.08
2018-02-04T06:13:54.394Z,71.66
2018-02-04T06:16:21.902Z,71.43
2018-02-04T06:18:49.452Z,70.69
2018-02-04T06:21:16.973Z,70.45
2018-02-04T06:23:44.545Z,70.55
2018-02-04T06:26:12.065Z,71.29
2018-02-04T06:28:39.578Z,71.30
2018-02-04T06:31:07.117Z,70.79
2018-02-04T06:33:34.641Z,70.96
2018-02-04T06:36:02.592Z,70.75
2018-02-04T06:38:30.108Z,70.90
2018-02-04T06:40:57.624Z,70.96
2018-02-04T06:45:58.917Z,70.47
2018-02-04T06:48:26.472Z,70.61
2018-02-04T06:50:53.998Z,70.30
2018-02-04T06:53:21.518Z,70.46
2018-02-04T06:55:49.076Z,70.70
2018-02-04T06:58:16.589Z,71.26
2018-02-04T07:00:44.137Z,70.56
2018-02-04T07:03:11.645Z,70.09
2018-02-04T07:05:39.193Z,69.86
2018-02-04T07:08:06.744Z,69.70
2018-02-04T07:10:34.307Z,69.26
2018-02-04T07:13:04.474Z,68.80
2018-02-04T07:15:31.993Z,68.70
2018-02-04T07:17:59.501Z,68.08
2018-02-04T07:20:27.098Z,68.02
2018-02-04T07:22:54.578Z,67.75
2018-02-04T07:25:22.133Z,67.36
2018-02-04T07:27:49.673Z,66.98
2018-02-04T07:30:17.203Z,66.80
2018-02-04T07:32:44.753Z,66.33
2018-02-04T07:35:12.278Z,66.25
2018-02-04T07:37:39.910Z,65.98
2018-02-04T07:40:07.430Z,66.08
2018-02-04T07:42:34.948Z,65.94
2018-02-04T07:45:02.480Z,67.03
2018-02-04T07:47:30.007Z,66.72
2018-02-04T07:49:57.581Z,66.68
2018-02-04T07:52:25.745Z,67.79
2018-02-04T07:54:53.262Z,67.39
2018-02-04T07:57:20.806Z,66.89
2018-02-04T07:59:48.329Z,66.10
2018-02-04T08:02:16.057Z,66.79
2018-02-04T08:07:10.487Z,65.57
2018-02-04T08:09:38.155Z,64.60
2018-02-04T08:12:05.673Z,65.21
2018-02-04T08:14:33.317Z,64.64
2018-02-04T08:17:00.879Z,64.40
2018-02-04T08:19:28.414Z,63.31
2018-02-04T08:21:55.974Z,63.53
2018-02-04T08:24:23.494Z,63.17
2018-02-04T08:26:51.336Z,62.07
2018-02-04T08:29:18.853Z,61.82
2018-02-04T08:31:46.430Z,61.86
2018-02-04T08:34:13.990Z,61.51
2018-02-04T08:36:41.526Z,61.16
2018-02-04T08:39:09.214Z,59.77
2018-02-04T08:41:36.743Z,59.19
2018-02-04T08:44:04.344Z,58.54
2018-02-04T08:46:31.891Z,58.48
2018-02-04T08:48:59.583Z,58.21
2018-02-04T08:51:27.300Z,57.84
2018-02-04T08:53:55.046Z,57.32
2018-02-04T08:56:22.805Z,56.58
2018-02-04T08:58:50.858Z,57.17
2018-02-04T09:01:18.513Z,57.81
2018-02-04T09:03:46.437Z,58.91
2018-02-04T09:06:14.119Z,57.66
2018-02-04T09:08:41.772Z,58.29
2018-02-04T09:11:09.342Z,57.49
2018-02-04T09:13:36.967Z,57.22
2018-02-04T09:16:04.988Z,55.04
2018-02-04T09:18:32.581Z,54.17
2018-02-04T09:21:00.152Z,54.27
2018-02-04T09:23:27.790Z,53.62
2018-02-04T09:25:55.317Z,53.57
2018-02-04T09:28:23.102Z,53.33
2018-02-04T09:30:50.707Z,53.28
2018-02-04T09:33:18.284Z,52.19
2018-02-04T09:35:45.901Z,53.12
2018-02-04T09:38:13.444Z,53.94
2018-02-04T09:40:41.155Z,55.49
2018-02-04T09:43:08.787Z,57.16
2018-02-04T09:45:36.404Z,57.93
2018-02-04T09:48:03.952Z,58.27
2018-02-04T09:50:31.478Z,56.54
2018-02-04T09:52:59.262Z,52.71
2018-02-04T09:55:26.901Z,51.01
2018-02-04T09:57:54.469Z,48.56
2018-02-04T10:00:22.103Z,43.92
2018-02-04T10:02:49.838Z,44.88
2018-02-04T10:05:18.048Z,45.74
2018-02-04T10:07:45.639Z,45.03
2018-02-04T10:10:13.229Z,46.24
2018-02-04T10:12:40.972Z,46.29
2018-02-04T10:15:08.634Z,46.13
2018-02-04T10:17:36.271Z,46.77
2018-02-04T10:20:03.820Z,45.42
2018-02-04T10:22:31.596Z,45.75
2018-02-04T10:24:59.316Z,44.35
2018-02-04T10:27:27.289Z,43.82
2018-02-04T10:29:55.053Z,44.75
2018-02-04T10:32:22.921Z,43.70
2018-02-04T10:34:50.787Z,43.45
2018-02-04T10:37:18.698Z,43.53
2018-02-04T10:39:46.639Z,44.89
2018-02-04T10:42:14.481Z,46.32
2018-02-04T10:44:42.823Z,46.58
2018-02-04T10:47:10.615Z,46.48
2018-02-04T10:49:38.508Z,47.42
2018-02-04T10:52:06.323Z,47.90
2018-02-04T10:54:34.128Z,47.41
2018-02-04T10:57:02.097Z,48.19
2018-02-04T10:59:30.680Z,47.34
2018-02-04T11:01:58.546Z,47.00
2018-02-04T11:04:26.211Z,47.96
2018-02-04T11:06:54.075Z,49.11
2018-02-04T11:09:21.939Z,46.91
2018-02-04T11:11:52.676Z,46.39
2018-02-04T11:14:20.263Z,45.20
2018-02-04T11:16:47.920Z,41.50
2018-02-04T11:19:15.866Z,40.90
2018-02-04T11:21:43.730Z,40.33
2018-02-04T11:24:11.867Z,39.92
2018-02-04T11:26:39.668Z,39.09
2018-02-04T11:29:07.529Z,39.12
2018-02-04T11:31:35.298Z,39.55
2018-02-04T11:34:03.165Z,38.23
2018-02-04T11:36:30.936Z,39.26
2018-02-04T11:38:58.796Z,39.71
2018-02-04T11:41:26.663Z,41.15
2018-02-04T11:43:54.654Z,41.97
2018-02-04T11:46:22.296Z,44.70
2018-02-04T11:48:50.207Z,46.91
2018-02-04T11:51:17.820Z,47.26
2018-02-04T11:53:45.584Z,47.38
2018-02-04T11:56:13.450Z,46.64
2018-02-04T11:58:42.343Z,46.07
2018-02-04T12:01:10.413Z,44.03
2018-02-04T12:03:38.182Z,42.86
2018-02-04T12:06:05.941Z,41.65
2018-02-04T12:08:33.807Z,40.52
2018-02-04T12:11:01.440Z,41.73
2018-02-04T12:13:29.339Z,42.27
2018-02-04T12:15:57.202Z,42.16
2018-02-04T12:18:24.966Z,43.66
2018-02-04T12:20:53.628Z,45.83
2018-02-04T12:23:22.133Z,45.83
2018-02-04T12:25:49.792Z,47.23
2018-02-04T12:28:17.542Z,49.31
2018-02-04T12:30:45.059Z,49.93
2018-02-04T12:33:12.606Z,47.65
2018-02-04T12:35:40.300Z,43.63
2018-02-04T12:38:08.410Z,43.72
2018-02-04T12:40:36.276Z,45.83
2018-02-04T12:43:03.976Z,47.45
2018-02-04T12:45:31.682Z,48.13
2018-02-04T12:47:59.265Z,49.06
2018-02-04T12:50:27.025Z,51.84
2018-02-04T12:52:54.769Z,54.49
2018-02-04T12:55:22.343Z,55.67
2018-02-04T12:57:50.215Z,55.84
2018-02-04T13:00:17.877Z,55.76
2018-02-04T13:02:45.626Z,55.94
2018-02-04T13:05:13.142Z,55.67
2018-02-04T13:07:40.862Z,55.81
2018-02-04T13:10:08.503Z,56.09
2018-02-04T13:12:36.164Z,57.08
2018-02-04T13:15:04.052Z,57.27
2018-02-04T13:17:31.659Z,57.84
2018-02-04T13:19:59.354Z,57.83
2018-02-04T13:22:27.048Z,57.52
2018-02-04T13:24:54.595Z,57.41
2018-02-04T13:27:22.304Z,57.64
2018-02-04T13:29:50.022Z,56.98
2018-02-04T13:32:17.538Z,57.03
2018-02-04T13:34:45.093Z,58.14
2018-02-04T13:37:13.119Z,57.76
2018-02-04T13:39:41.068Z,59.37
2018-02-04T13:42:08.809Z,59.95
2018-02-04T13:44:36.586Z,59.05
2018-02-04T13:47:04.268Z,58.79
2018-02-04T13:49:32.646Z,59.13
2018-02-04T13:52:00.615Z,59.64
2018-02-04T13:54:28.240Z,59.77
2018-02-04T13:56:55.919Z,59.87
2018-02-04T13:59:23.702Z,60.32
2018-02-04T14:01:51.672Z,60.06
2018-02-04T14:04:19.541Z,60.33
2018-02-04T14:06:47.609Z,60.36
2018-02-04T14:09:15.885Z,60.84
2018-02-04T14:11:43.751Z,60.47
2018-02-04T14:14:12.131Z,61.36
2018-02-04T14:16:40.098Z,61.87
2018-02-04T14:19:07.933Z,62.06
2018-02-04T14:21:35.716Z,63.42
2018-02-04T14:24:05.851Z,63.55
2018-02-04T14:26:33.714Z,63.59
2018-02-04T14:29:01.787Z,64.05
2018-02-04T14:31:29.651Z,64.21
2018-02-04T14:33:57.519Z,64.05
2018-02-04T14:36:25.488Z,64.55
2018-02-04T14:38:53.355Z,64.71
2018-02-04T14:41:21.735Z,64.66
2018-02-04T14:43:50.142Z,65.35
2018-02-04T14:46:17.995Z,64.85
2018-02-04T14:48:45.947Z,65.12
2018-02-04T14:51:13.916Z,65.61
2018-02-04T14:53:41.994Z,65.55
2018-02-04T14:56:09.853Z,66.49
2018-02-04T14:58:37.972Z,65.82
2018-02-04T15:01:05.782Z,66.82
2018-02-04T15:03:34.989Z,66.44
2018-02-04T15:06:02.959Z,66.84
2018-02-04T15:08:30.825Z,67.12
2018-02-04T15:10:58.691Z,66.37
2018-02-04T15:13:27.351Z,66.58
2018-02-04T15:15:55.448Z,66.11
2018-02-04T15:18:24.032Z,66.38
2018-02-04T15:20:51.919Z,66.26
2018-02-04T15:23:19.769Z,66.48
2018-02-04T15:25:47.631Z,66.46
2018-02-04T15:28:15.502Z,66.00
2018-02-04T15:30:43.468Z,65.82
2018-02-04T15:33:11.435Z,65.88
2018-02-04T15:35:39.301Z,65.81
2018-02-04T15:38:07.167Z,66.02
2018-02-04T15:40:34.929Z,66.02
2018-02-04T15:43:03.007Z,66.14
2018-02-04T15:45:30.870Z,66.05
2018-02-04T15:47:58.638Z,65.83
2018-02-04T15:50:26.489Z,66.26
2018-02-04T15:52:54.338Z,66.36
2018-02-04T15:55:22.235Z,65.87
2018-02-04T15:57:50.100Z,65.97
2018-02-04T16:00:17.968Z,66.30
2018-02-04T16:04:32.533Z,67.11
2018-02-04T16:07:00.503Z,66.22
2018-02-04T16:09:28.370Z,66.75
2018-02-04T16:11:56.107Z,66.51
2018-02-04T16:14:23.821Z,66.83
2018-02-04T16:16:51.558Z,66.79
2018-02-04T16:19:19.835Z,66.66
2018-02-04T16:21:47.707Z,67.04
2018-02-04T16:24:15.571Z,67.28
2018-02-04T16:26:43.538Z,67.40
2018-02-04T16:29:11.610Z,68.07
2018-02-04T16:31:39.389Z,67.09
2018-02-04T16:34:07.243Z,66.86
2018-02-04T16:36:35.074Z,66.97
2018-02-04T16:39:03.075Z,67.06
2018-02-04T16:41:31.865Z,67.28
2018-02-04T16:43:59.934Z,67.68
2018-02-04T16:46:28.416Z,66.59
2018-02-04T16:48:57.224Z,66.63
2018-02-04T16:51:25.889Z,66.33
2018-02-04T16:53:53.737Z,66.61
2018-02-04T16:56:21.680Z,66.70
2018-02-04T16:58:49.551Z,66.66
2018-02-04T17:01:17.416Z,66.81
2018-02-04T17:03:45.280Z,66.91
2018-02-04T17:06:13.190Z,66.96
2018-02-04T17:08:41.261Z,66.75
2018-02-04T17:11:08.933Z,67.47
2018-02-04T17:13:36.789Z,66.92
2018-02-04T17:16:05.237Z,66.94
2018-02-04T17:18:33.137Z,67.07
2018-02-04T17:21:01.176Z,67.01
2018-02-04T17:23:29.074Z,67.57
2018-02-04T17:25:56.931Z,67.44
2018-02-04T17:28:24.705Z,66.99
2018-02-04T17:30:52.471Z,67.12
2018-02-04T17:33:20.403Z,67.18
2018-02-04T17:35:48.305Z,67.70
2018-02-04T17:38:16.172Z,67.08
2018-02-04T17:40:44.041Z,67.16
2018-02-04T17:43:11.905Z,67.80
2018-02-04T17:45:40.283Z,66.91
2018-02-04T17:48:08.150Z,66.63
2018-02-04T17:50:36.634Z,66.80
2018-02-04T17:53:04.480Z,67.02
2018-02-04T17:55:32.978Z,67.08
2018-02-04T17:58:01.153Z,67.63
2018-02-04T18:00:28.984Z,67.72
2018-02-04T18:02:59.160Z,67.55
2018-02-04T18:05:27.107Z,67.03
2018-02-04T18:07:54.974Z,66.90
2018-02-04T18:10:23.044Z,67.08
2018-02-04T18:12:50.911Z,66.91
2018-02-04T18:15:18.735Z,66.84
2018-02-04T18:17:46.745Z,66.68
2018-02-04T18:20:15.818Z,66.95
2018-02-04T18:22:44.018Z,67.65
2018-02-04T18:25:12.150Z,67.20
2018-02-04T18:27:40.061Z,66.84
2018-02-04T18:30:08.434Z,66.66
2018-02-04T18:32:36.300Z,67.86
2018-02-04T18:35:04.576Z,67.48
2018-02-04T18:37:32.442Z,67.15
2018-02-04T18:40:00.398Z,67.64
2018-02-04T18:42:28.341Z,67.07
2018-02-04T18:44:56.257Z,66.93
2018-02-04T18:47:24.133Z,67.07
2018-02-04T18:49:52.128Z,66.83
2018-02-04T18:52:20.052Z,66.73
2018-02-04T18:54:47.917Z,66.93
2018-02-04T18:57:15.888Z,66.74
2018-02-04T18:59:44.790Z,66.49
2018-02-04T19:02:14.454Z,67.33
2018-02-04T19:04:42.343Z,67.23
2018-02-04T19:07:12.675Z,67.62
2018-02-04T19:09:41.365Z,67.28
2018-02-04T19:12:09.438Z,67.02
2018-02-04T19:14:37.301Z,67.51
2018-02-04T19:17:05.681Z,67.30
2018-02-04T19:19:33.651Z,67.40
2018-02-04T19:22:01.516Z,66.93
2018-02-04T19:24:29.648Z,67.18
2018-02-04T19:26:57.840Z,67.25
2018-02-04T19:29:25.729Z,66.74
2018-02-04T19:31:55.439Z,66.95
2018-02-04T19:34:23.217Z,66.62
2018-02-04T19:36:51.356Z,66.65
2018-02-04T19:39:20.473Z,67.04
2018-02-04T19:41:48.415Z,67.12
2018-02-04T19:44:16.412Z,66.61
2018-02-04T19:46:45.125Z,66.75
2018-02-04T19:49:14.042Z,66.53
2018-02-04T19:51:41.931Z,66.66
2018-02-04T19:54:09.824Z,66.64
2018-02-04T19:56:37.766Z,66.70
2018-02-04T19:59:05.833Z,66.96
2018-02-04T20:01:34.653Z,66.67
2018-02-04T20:04:02.665Z,66.72
2018-02-04T20:06:30.555Z,66.42
2018-02-04T20:08:58.456Z,66.70
2018-02-04T20:11:26.320Z,66.71
2018-02-04T20:13:54.331Z,67.05
2018-02-04T20:16:22.434Z,66.97
2018-02-04T20:18:51.149Z,66.79
2018-02-04T20:21:19.130Z,66.79
2018-02-04T20:23:46.948Z,66.79
2018-02-04T20:26:15.113Z,66.90
2018-02-04T20:28:42.925Z,66.49
2018-02-04T20:31:10.891Z,66.85
2018-02-04T20:33:50.713Z,66.41
2018-02-04T20:36:18.708Z,66.66
2018-02-04T20:38:46.576Z,66.23
2018-02-04T20:41:15.950Z,66.15
2018-02-04T20:43:43.950Z,66.79
2018-02-04T20:46:11.916Z,66.58
2018-02-04T20:48:39.859Z,66.37
2018-02-04T20:51:08.512Z,66.72
2018-02-04T20:53:36.649Z,66.59
2018-02-04T20:56:04.611Z,67.15
2018-02-04T20:58:33.985Z,66.77
2018-02-04T21:01:01.982Z,66.36
2018-02-04T21:03:30.053Z,66.78
2018-02-04T21:06:00.516Z,66.66
2018-02-04T21:08:28.718Z,66.21
2018-02-04T21:10:56.621Z,66.81
2018-02-04T21:13:24.692Z,66.53
2018-02-04T21:15:52.560Z,66.74
2018-02-04T21:18:20.339Z,67.62
2018-02-04T21:20:48.940Z,67.31
2018-02-04T21:23:16.876Z,67.36
2018-02-04T21:25:45.977Z,67.33
2018-02-04T21:28:13.901Z,67.06
2018-02-04T21:30:41.809Z,67.03
2018-02-04T21:33:09.879Z,67.04
2018-02-04T21:35:37.697Z,67.01
2018-02-04T21:38:05.617Z,67.09
2018-02-04T21:40:33.580Z,66.66
2018-02-04T21:43:01.401Z,66.49
2018-02-04T21:45:32.302Z,66.98
2018-02-04T21:48:00.042Z,66.60
2018-02-04T21:50:27.875Z,67.04
2018-02-04T21:52:55.988Z,67.50
2018-02-04T21:55:23.964Z,67.18
2018-02-04T21:57:51.636Z,67.19
2018-02-04T22:00:19.789Z,67.53
2018-02-04T22:02:47.533Z,67.55
2018-02-04T22:05:15.420Z,67.11
2018-02-04T22:07:43.184Z,66.80
2018-02-04T22:10:11.008Z,66.99
2018-02-04T22:12:38.648Z,66.80
2018-02-04T22:15:06.257Z,67.05
2018-02-04T22:17:33.820Z,67.29
2018-02-04T22:20:01.414Z,67.26
2018-02-04T22:22:29.565Z,67.15
2018-02-04T22:24:57.514Z,67.08
2018-02-04T22:27:25.063Z,66.99
2018-02-04T22:29:53.061Z,67.29
2018-02-04T22:32:20.637Z,67.20
2018-02-04T22:34:48.164Z,67.22
2018-02-04T22:37:15.721Z,66.79
2018-02-04T22:39:44.125Z,67.15
2018-02-04T22:42:11.873Z,67.38
2018-02-04T22:44:39.545Z,66.87
2018-02-04T22:47:07.547Z,67.11
2018-02-04T22:49:35.070Z,67.29
2018-02-04T22:52:02.617Z,67.54
2018-02-04T22:54:30.174Z,67.33
2018-02-04T22:56:57.854Z,66.71
2018-02-04T22:59:25.473Z,66.66
2018-02-04T23:01:53.016Z,66.94
2018-02-04T23:04:20.586Z,67.04
2018-02-04T23:06:48.102Z,66.99
2018-02-04T23:09:15.673Z,67.05
2018-02-04T23:11:43.469Z,67.42
2018-02-04T23:14:11.006Z,67.89
2018-02-04T23:16:38.551Z,67.76
2018-02-04T23:19:06.066Z,67.48
2018-02-04T23:21:33.628Z,67.73
2018-02-04T23:24:01.173Z,67.69
2018-02-04T23:26:28.685Z,67.88
2018-02-04T23:28:56.228Z,68.37
2018-02-04T23:31:23.765Z,68.15
2018-02-04T23:33:51.539Z,68.18
2018-02-04T23:36:19.066Z,68.21
2018-02-04T23:38:46.593Z,67.88
2018-02-04T23:41:14.200Z,67.71
2018-02-04T23:43:41.713Z,68.47
2018-02-04T23:46:09.441Z,68.23
2018-02-04T23:48:36.993Z,67.70
2018-02-04T23:51:04.517Z,68.44
2018-02-04T23:53:32.063Z,68.41
2018-02-04T23:55:59.573Z,67.95
2018-02-04T23:58:27.335Z,67.85
